createdAt,value
2024-03-24T00:00:21.359Z,13.43
2024-03-24T00:03:12.654Z,13.37
2024-03-24T00:05:43.179Z,13.35
2024-03-24T00:08:13.682Z,13.32
2024-03-24T00:10:44.208Z,13.30
2024-03-24T00:13:14.712Z,13.30
2024-03-24T00:15:45.215Z,13.26
2024-03-24T00:18:15.674Z,13.26
2024-03-24T00:20:46.130Z,13.28
2024-03-24T00:23:17.281Z,13.27
2024-03-24T00:25:47.828Z,13.23
2024-03-24T00:28:18.337Z,13.20
2024-03-24T00:30:48.804Z,13.17
2024-03-24T00:33:21.176Z,13.08
2024-03-24T00:35:51.801Z,12.95
2024-03-24T00:38:22.507Z,12.89
2024-03-24T00:40:53.116Z,12.85
2024-03-24T00:43:23.606Z,12.80
2024-03-24T00:45:54.125Z,12.76
2024-03-24T00:48:24.538Z,12.73
2024-03-24T00:50:55.008Z,12.70
2024-03-24T00:53:25.618Z,12.69
2024-03-24T00:55:56.443Z,12.70
2024-03-24T00:58:26.938Z,12.68
2024-03-24T01:00:57.457Z,12.65
2024-03-24T01:03:27.946Z,12.62
2024-03-24T01:05:58.863Z,12.59
2024-03-24T01:08:29.352Z,12.57
2024-03-24T01:11:00.655Z,12.55
2024-03-24T01:13:31.150Z,12.54
2024-03-24T01:16:01.602Z,12.53
2024-03-24T01:18:32.065Z,12.53
2024-03-24T01:21:03.383Z,12.52
2024-03-24T01:23:33.884Z,12.48
2024-03-24T01:26:04.511Z,12.47
2024-03-24T01:28:34.950Z,12.45
2024-03-24T01:31:05.682Z,12.40
2024-03-24T01:33:36.198Z,12.38
2024-03-24T01:36:07.846Z,12.36
2024-03-24T01:38:38.327Z,12.33
2024-03-24T01:41:08.838Z,12.28
2024-03-24T01:43:39.407Z,12.22
2024-03-24T01:46:10.039Z,12.17
2024-03-24T01:48:40.613Z,12.14
2024-03-24T01:51:11.220Z,12.12
2024-03-24T01:53:41.730Z,12.09
2024-03-24T01:56:12.306Z,12.03
2024-03-24T01:58:42.809Z,12.01
2024-03-24T02:01:13.280Z,11.99
2024-03-24T02:03:43.743Z,11.95
2024-03-24T02:06:14.572Z,11.91
2024-03-24T02:08:45.078Z,11.87
2024-03-24T02:11:15.613Z,11.87
2024-03-24T02:13:46.128Z,11.85
2024-03-24T02:16:16.611Z,11.82
2024-03-24T02:18:51.092Z,11.80
2024-03-24T02:21:22.000Z,11.79
2024-03-24T02:23:52.442Z,11.74
2024-03-24T02:26:22.900Z,11.62
2024-03-24T02:28:53.536Z,11.55
2024-03-24T02:31:23.826Z,11.56
2024-03-24T02:33:54.262Z,11.54
2024-03-24T02:36:24.841Z,11.47
2024-03-24T02:38:55.304Z,11.45
2024-03-24T02:41:26.193Z,11.48
2024-03-24T02:43:56.998Z,11.47
2024-03-24T02:46:27.473Z,11.45
2024-03-24T02:48:57.966Z,11.46
2024-03-24T02:51:28.363Z,11.42
2024-03-24T02:53:58.847Z,11.31
2024-03-24T02:56:29.267Z,11.18
2024-03-24T02:58:59.862Z,11.03
2024-03-24T03:01:30.483Z,10.92
2024-03-24T03:04:01.067Z,10.86
2024-03-24T03:06:31.605Z,10.81
2024-03-24T03:09:08.865Z,10.84
2024-03-24T03:11:39.682Z,10.88
2024-03-24T03:14:10.210Z,10.90
2024-03-24T03:16:41.815Z,10.90
2024-03-24T03:19:12.410Z,10.92
2024-03-24T03:21:43.046Z,10.96
2024-03-24T03:24:13.524Z,10.99
2024-03-24T03:26:44.100Z,11.02
2024-03-24T03:29:14.572Z,11.05
2024-03-24T03:31:45.136Z,11.04
2024-03-24T03:34:15.781Z,11.00
2024-03-24T03:36:46.315Z,10.95
2024-03-24T03:39:16.808Z,10.90
2024-03-24T03:41:47.332Z,10.82
2024-03-24T03:44:17.961Z,10.72
2024-03-24T03:46:48.540Z,10.73
2024-03-24T03:49:19.101Z,10.77
2024-03-24T03:51:57.418Z,10.81
2024-03-24T03:54:27.840Z,10.84
2024-03-24T03:56:58.323Z,10.85
2024-03-24T03:59:28.856Z,10.87
2024-03-24T04:01:59.284Z,10.82
2024-03-24T04:04:30.171Z,10.78
2024-03-24T04:07:00.617Z,10.83
2024-03-24T04:09:31.082Z,10.80
2024-03-24T04:12:01.615Z,10.72
2024-03-24T04:14:32.056Z,10.69
2024-03-24T04:17:02.508Z,10.62
2024-03-24T04:19:33.043Z,10.50
2024-03-24T04:22:03.618Z,10.47
2024-03-24T04:24:34.099Z,10.50
2024-03-24T04:27:05.587Z,10.57
2024-03-24T04:29:36.296Z,10.64
2024-03-24T04:32:07.877Z,10.71
2024-03-24T04:34:39.992Z,10.79
2024-03-24T04:37:10.507Z,10.85
2024-03-24T04:39:40.927Z,10.84
2024-03-24T04:42:11.599Z,10.80
2024-03-24T04:44:42.203Z,10.84
2024-03-24T04:47:12.707Z,10.91
2024-03-24T04:49:43.346Z,10.96
2024-03-24T04:52:13.774Z,11.02
2024-03-24T04:54:44.480Z,11.03
2024-03-24T04:57:15.043Z,11.04
2024-03-24T04:59:45.559Z,11.03
2024-03-24T05:02:16.085Z,11.06
2024-03-24T05:04:47.101Z,11.14
2024-03-24T05:07:17.688Z,11.20
2024-03-24T05:09:48.228Z,11.25
2024-03-24T05:12:18.693Z,11.31
2024-03-24T05:14:49.311Z,11.39
2024-03-24T05:17:19.750Z,11.43
2024-03-24T05:19:50.268Z,11.46
2024-03-24T05:22:20.802Z,11.52
2024-03-24T05:24:51.231Z,11.56
2024-03-24T05:27:21.736Z,11.60
2024-03-24T05:29:52.356Z,11.63
2024-03-24T05:32:22.903Z,11.68
2024-03-24T05:34:53.491Z,11.73
2024-03-24T05:37:23.953Z,11.73
2024-03-24T05:39:54.426Z,11.75
2024-03-24T05:42:24.869Z,11.74
2024-03-24T05:44:55.280Z,11.71
2024-03-24T05:47:25.789Z,11.68
2024-03-24T05:49:57.476Z,11.70
2024-03-24T05:52:28.667Z,11.71
2024-03-24T05:54:59.213Z,11.75
2024-03-24T05:57:29.780Z,11.80
2024-03-24T06:00:00.489Z,11.85
2024-03-24T06:02:31.183Z,11.90
2024-03-24T06:05:01.685Z,11.94
2024-03-24T06:07:32.244Z,11.94
2024-03-24T06:10:04.754Z,11.90
2024-03-24T06:12:35.188Z,11.86
2024-03-24T06:15:06.236Z,11.84
2024-03-24T06:17:36.660Z,11.82
2024-03-24T06:20:08.403Z,11.80
2024-03-24T06:22:38.883Z,11.83
2024-03-24T06:25:10.043Z,11.87
2024-03-24T06:27:40.540Z,11.94
2024-03-24T06:30:12.064Z,11.98
2024-03-24T06:32:42.594Z,12.02
2024-03-24T06:35:13.189Z,12.08
2024-03-24T06:37:43.626Z,12.15
2024-03-24T06:40:14.318Z,12.18
2024-03-24T06:42:49.843Z,12.23
2024-03-24T06:45:20.413Z,12.29
2024-03-24T06:47:50.958Z,12.31
2024-03-24T06:50:21.398Z,12.30
2024-03-24T06:52:53.526Z,12.31
2024-03-24T06:55:24.142Z,12.30
2024-03-24T06:57:54.793Z,12.23
2024-03-24T07:00:25.468Z,12.21
2024-03-24T07:02:55.940Z,12.20
2024-03-24T07:05:27.627Z,12.22
2024-03-24T07:07:58.152Z,12.22
2024-03-24T07:10:28.647Z,12.14
2024-03-24T07:12:59.164Z,12.02
2024-03-24T07:15:29.715Z,12.02
2024-03-24T07:18:00.239Z,12.12
2024-03-24T07:20:30.818Z,12.27
2024-03-24T07:23:01.364Z,12.39
2024-03-24T07:25:31.875Z,12.39
2024-03-24T07:28:02.310Z,12.35
2024-03-24T07:30:32.826Z,12.39
2024-03-24T07:33:03.366Z,12.44
2024-03-24T07:35:34.415Z,12.48
2024-03-24T07:38:05.099Z,12.52
2024-03-24T07:40:35.675Z,12.58
2024-03-24T07:43:06.323Z,12.62
2024-03-24T07:45:36.782Z,12.65
2024-03-24T07:48:11.165Z,12.64
2024-03-24T07:50:42.546Z,12.66
2024-03-24T07:53:13.093Z,12.70
2024-03-24T07:55:45.142Z,12.60
2024-03-24T07:58:15.756Z,12.57
2024-03-24T08:00:46.365Z,12.52
2024-03-24T08:03:16.981Z,12.50
2024-03-24T08:05:47.801Z,12.57
2024-03-24T08:08:18.906Z,12.71
2024-03-24T08:10:49.375Z,12.86
2024-03-24T08:13:20.013Z,12.96
2024-03-24T08:15:50.547Z,13.03
2024-03-24T08:18:21.416Z,13.05
2024-03-24T08:20:53.911Z,13.05
2024-03-24T08:23:25.689Z,13.05
2024-03-24T08:25:56.350Z,13.03
2024-03-24T08:28:27.840Z,13.05
2024-03-24T08:30:58.735Z,13.09
2024-03-24T08:33:29.225Z,13.07
2024-03-24T08:35:59.704Z,13.13
2024-03-24T08:38:30.333Z,13.18
2024-03-24T08:41:00.898Z,13.18
2024-03-24T08:43:31.421Z,13.17
2024-03-24T08:46:01.942Z,13.18
2024-03-24T08:48:38.414Z,13.23
2024-03-24T08:51:12.790Z,13.32
2024-03-24T08:53:43.262Z,13.39
2024-03-24T08:56:13.845Z,13.49
2024-03-24T08:58:44.303Z,13.64
2024-03-24T09:01:14.947Z,13.78
2024-03-24T09:03:45.405Z,13.92
2024-03-24T09:06:16.548Z,14.05
2024-03-24T09:08:47.073Z,14.23
2024-03-24T09:11:17.613Z,14.48
2024-03-24T09:13:48.128Z,14.72
2024-03-24T09:16:18.652Z,14.92
2024-03-24T09:18:49.216Z,15.11
2024-03-24T09:21:19.708Z,15.40
2024-03-24T09:23:52.173Z,15.85
2024-03-24T09:26:25.304Z,16.34
2024-03-24T09:28:55.784Z,16.76
2024-03-24T09:31:26.840Z,17.22
2024-03-24T09:33:57.303Z,17.52
2024-03-24T09:36:28.198Z,17.79
2024-03-24T09:38:58.700Z,18.06
2024-03-24T09:41:29.608Z,18.47
2024-03-24T09:44:00.781Z,18.81
2024-03-24T09:46:31.283Z,19.08
2024-03-24T09:49:01.757Z,19.36
2024-03-24T09:51:32.353Z,19.64
2024-03-24T09:54:03.014Z,19.99
2024-03-24T09:56:33.602Z,20.19
2024-03-24T09:59:04.734Z,20.39
2024-03-24T10:01:39.140Z,20.60
2024-03-24T10:04:09.767Z,20.76
2024-03-24T10:06:40.279Z,20.88
2024-03-24T10:09:10.921Z,21.12
2024-03-24T10:11:41.469Z,21.11
2024-03-24T10:14:11.936Z,21.08
2024-03-24T10:16:42.467Z,21.27
2024-03-24T10:19:13.644Z,21.49
2024-03-24T10:21:44.198Z,21.73
2024-03-24T10:24:14.721Z,22.00
2024-03-24T10:26:45.304Z,22.26
2024-03-24T10:29:15.857Z,22.57
2024-03-24T10:31:49.758Z,22.85
2024-03-24T10:34:21.666Z,23.01
2024-03-24T10:36:52.287Z,23.22
2024-03-24T10:39:23.662Z,23.35
2024-03-24T10:41:55.034Z,23.35
2024-03-24T10:44:26.738Z,23.37
2024-03-24T10:46:57.312Z,23.34
2024-03-24T10:49:28.632Z,23.48
2024-03-24T10:52:01.837Z,23.61
2024-03-24T10:54:32.392Z,23.78
2024-03-24T10:57:02.973Z,24.06
2024-03-24T10:59:33.909Z,24.20
2024-03-24T11:02:04.540Z,24.25
2024-03-24T11:04:35.187Z,24.35
2024-03-24T11:07:06.428Z,24.35
2024-03-24T11:09:37.072Z,24.53
2024-03-24T11:12:08.625Z,24.67
2024-03-24T11:14:39.152Z,24.85
2024-03-24T11:17:10.162Z,24.99
2024-03-24T11:19:40.848Z,25.23
2024-03-24T11:22:11.531Z,25.41
2024-03-24T11:24:42.051Z,25.16
2024-03-24T11:27:14.991Z,25.15
2024-03-24T11:29:56.036Z,25.36
2024-03-24T11:32:29.572Z,25.41
2024-03-24T11:35:00.728Z,25.58
2024-03-24T11:37:32.759Z,25.66
2024-03-24T11:40:03.307Z,25.74
2024-03-24T11:42:34.808Z,25.98
2024-03-24T11:45:18.643Z,26.12
2024-03-24T11:47:53.556Z,26.17
2024-03-24T11:50:36.788Z,26.12
2024-03-24T11:53:07.356Z,26.12
2024-03-24T11:55:37.815Z,26.05
2024-03-24T11:58:08.340Z,26.09
2024-03-24T12:00:38.937Z,26.00
2024-03-24T12:03:09.527Z,26.26
2024-03-24T12:05:40.147Z,26.58
2024-03-24T12:08:10.750Z,26.63
2024-03-24T12:10:41.221Z,26.32
2024-03-24T12:13:12.031Z,26.27
2024-03-24T12:15:42.666Z,26.22
2024-03-24T12:18:13.730Z,26.25
2024-03-24T12:20:44.346Z,26.28
2024-03-24T12:23:15.521Z,26.05
2024-03-24T12:25:50.830Z,25.79
2024-03-24T12:28:21.711Z,25.78
2024-03-24T12:30:52.386Z,25.94
2024-03-24T12:33:23.129Z,26.11
2024-03-24T12:35:54.122Z,26.24
2024-03-24T12:38:24.662Z,26.21
2024-03-24T12:40:55.546Z,26.36
2024-03-24T12:43:29.265Z,26.61
2024-03-24T12:46:03.005Z,26.81
2024-03-24T12:48:34.103Z,26.79
2024-03-24T12:51:04.787Z,26.76
2024-03-24T12:53:38.876Z,27.00
2024-03-24T12:56:09.958Z,27.20
2024-03-24T12:58:41.290Z,27.00
2024-03-24T13:01:11.886Z,26.85
2024-03-24T13:03:42.397Z,26.83
2024-03-24T13:06:13.698Z,26.81
2024-03-24T13:08:45.539Z,26.92
2024-03-24T13:11:22.695Z,27.02
2024-03-24T13:13:53.785Z,27.21
2024-03-24T13:16:30.220Z,27.15
2024-03-24T13:19:03.121Z,27.02
2024-03-24T13:21:34.576Z,27.01
2024-03-24T13:24:05.367Z,27.11
2024-03-24T13:26:40.376Z,26.90
2024-03-24T13:29:10.962Z,26.80
2024-03-24T13:31:41.547Z,26.92
2024-03-24T13:34:12.222Z,27.08
2024-03-24T13:36:46.732Z,27.02
2024-03-24T13:39:19.120Z,26.90
2024-03-24T13:41:52.245Z,26.65
2024-03-24T13:44:25.798Z,26.71
2024-03-24T13:47:02.980Z,26.80
2024-03-24T13:49:33.566Z,26.73
2024-03-24T13:52:04.166Z,26.78
2024-03-24T13:54:34.978Z,26.77
2024-03-24T13:57:05.697Z,26.81
2024-03-24T13:59:36.364Z,26.80
2024-03-24T14:02:07.213Z,26.77
2024-03-24T14:04:37.822Z,26.86
2024-03-24T14:07:08.453Z,26.64
2024-03-24T14:09:39.047Z,26.48
2024-03-24T14:12:09.918Z,26.49
2024-03-24T14:14:45.113Z,26.47
2024-03-24T14:17:19.625Z,26.35
2024-03-24T14:19:51.084Z,26.13
2024-03-24T14:22:22.179Z,25.76
2024-03-24T14:24:55.969Z,25.51
2024-03-24T14:27:26.568Z,25.36
2024-03-24T14:29:57.188Z,25.27
2024-03-24T14:32:27.896Z,25.33
2024-03-24T14:34:58.579Z,25.44
2024-03-24T14:37:36.649Z,25.58
2024-03-24T14:40:20.618Z,25.60
2024-03-24T14:42:53.495Z,25.37
2024-03-24T14:45:27.618Z,25.13
2024-03-24T14:48:01.449Z,25.00
2024-03-24T14:50:31.903Z,24.79
2024-03-24T14:53:02.436Z,24.62
2024-03-24T14:55:32.992Z,24.39
2024-03-24T14:58:03.623Z,24.26
2024-03-24T15:00:34.205Z,23.98
2024-03-24T15:03:05.284Z,23.86
2024-03-24T15:05:37.508Z,23.67
2024-03-24T15:08:08.759Z,23.46
2024-03-24T15:10:39.446Z,23.27
2024-03-24T15:13:11.548Z,23.18
2024-03-24T15:15:42.267Z,23.08
2024-03-24T15:18:12.776Z,22.95
2024-03-24T15:20:43.374Z,22.76
2024-03-24T15:23:14.065Z,22.70
2024-03-24T15:25:44.623Z,22.55
2024-03-24T15:28:15.022Z,22.49
2024-03-24T15:30:45.571Z,22.44
2024-03-24T15:33:16.054Z,22.33
2024-03-24T15:35:46.546Z,22.16
2024-03-24T15:38:16.962Z,22.13
2024-03-24T15:40:50.564Z,22.09
2024-03-24T15:43:22.711Z,22.09
2024-03-24T15:45:53.110Z,22.09
2024-03-24T15:48:23.627Z,22.10
2024-03-24T15:50:54.148Z,22.05
2024-03-24T15:53:24.644Z,21.99
2024-03-24T15:55:56.849Z,21.86
2024-03-24T15:58:30.884Z,21.81
2024-03-24T16:01:03.409Z,21.85
2024-03-24T16:03:34.519Z,21.90
2024-03-24T16:06:05.330Z,21.87
2024-03-24T16:08:35.862Z,21.83
2024-03-24T16:11:07.467Z,21.82
2024-03-24T16:13:41.461Z,21.82
2024-03-24T16:16:17.511Z,21.85
2024-03-24T16:18:47.881Z,21.80
2024-03-24T16:21:21.303Z,21.74
2024-03-24T16:23:51.915Z,21.68
2024-03-24T16:26:23.908Z,21.59
2024-03-24T16:28:56.573Z,21.48
2024-03-24T16:31:27.192Z,21.41
2024-03-24T16:33:58.465Z,21.41
2024-03-24T16:36:29.004Z,21.34
2024-03-24T16:39:00.340Z,21.29
2024-03-24T16:41:31.665Z,21.29
2024-03-24T16:44:02.224Z,21.33
2024-03-24T16:46:32.877Z,21.35
2024-03-24T16:49:05.833Z,21.37
2024-03-24T16:51:36.346Z,21.39
2024-03-24T16:54:07.064Z,21.38
2024-03-24T16:56:37.792Z,21.38
2024-03-24T16:59:08.386Z,21.34
2024-03-24T17:01:38.972Z,21.33
2024-03-24T17:04:09.487Z,21.33
2024-03-24T17:06:40.150Z,21.32
2024-03-24T17:09:12.352Z,21.30
2024-03-24T17:11:42.949Z,21.25
2024-03-24T17:14:13.433Z,21.21
2024-03-24T17:16:44.009Z,21.08
2024-03-24T17:19:17.728Z,20.91
2024-03-24T17:21:48.488Z,20.68
2024-03-24T17:24:23.562Z,20.42
2024-03-24T17:26:55.254Z,20.27
2024-03-24T17:29:25.977Z,20.12
2024-03-24T17:31:56.613Z,20.10
2024-03-24T17:34:27.146Z,20.07
2024-03-24T17:36:57.685Z,19.95
2024-03-24T17:39:29.329Z,19.80
2024-03-24T17:41:59.865Z,19.73
2024-03-24T17:44:30.562Z,19.75
2024-03-24T17:47:01.136Z,19.78
2024-03-24T17:49:31.692Z,19.75
2024-03-24T17:52:04.169Z,19.64
2024-03-24T17:54:34.847Z,19.48
2024-03-24T17:57:05.559Z,19.32
2024-03-24T17:59:36.085Z,19.18
2024-03-24T18:02:07.555Z,19.11
2024-03-24T18:04:38.287Z,19.11
2024-03-24T18:07:26.258Z,19.06
2024-03-24T18:10:20.112Z,19.01
2024-03-24T18:12:51.752Z,18.94
2024-03-24T18:15:22.587Z,18.91
2024-03-24T18:17:53.321Z,18.92
2024-03-24T18:20:24.544Z,18.91
2024-03-24T18:22:55.111Z,18.85
2024-03-24T18:25:25.821Z,18.86
2024-03-24T18:27:56.232Z,18.83
2024-03-24T18:30:26.633Z,18.72
2024-03-24T18:32:57.153Z,18.57
2024-03-24T18:35:27.655Z,18.47
2024-03-24T18:37:58.261Z,18.28
2024-03-24T18:40:28.766Z,18.18
2024-03-24T18:43:00.970Z,18.05
2024-03-24T18:45:31.478Z,17.82
2024-03-24T18:48:03.367Z,17.63
2024-03-24T18:50:33.967Z,17.42
2024-03-24T18:53:05.564Z,17.25
2024-03-24T18:55:36.123Z,17.16
2024-03-24T18:58:06.856Z,17.06
2024-03-24T19:00:37.278Z,16.93
2024-03-24T19:03:12.217Z,16.72
2024-03-24T19:05:44.120Z,16.54
2024-03-24T19:08:17.751Z,16.40
2024-03-24T19:10:48.281Z,16.24
2024-03-24T19:13:21.374Z,16.10
2024-03-24T19:15:51.961Z,15.96
2024-03-24T19:18:22.881Z,15.89
2024-03-24T19:20:53.530Z,15.84
2024-03-24T19:23:24.014Z,15.74
2024-03-24T19:26:00.652Z,15.59
2024-03-24T19:28:32.447Z,15.46
2024-03-24T19:31:03.004Z,15.37
2024-03-24T19:33:34.151Z,15.26
2024-03-24T19:36:05.324Z,15.20
2024-03-24T19:38:36.000Z,15.08
2024-03-24T19:41:06.754Z,14.95
2024-03-24T19:43:37.184Z,14.88
2024-03-24T19:46:07.787Z,14.82
2024-03-24T19:48:38.498Z,14.75
2024-03-24T19:51:10.848Z,14.67
2024-03-24T19:53:41.854Z,14.62
2024-03-24T19:56:12.508Z,14.47
2024-03-24T19:58:43.230Z,14.40
2024-03-24T20:01:13.800Z,14.33
2024-03-24T20:03:45.617Z,14.23
2024-03-24T20:06:16.231Z,14.05
2024-03-24T20:08:46.939Z,13.79
2024-03-24T20:11:17.532Z,13.53
2024-03-24T20:13:48.069Z,13.22
2024-03-24T20:16:18.619Z,12.90
2024-03-24T20:18:49.169Z,12.65
2024-03-24T20:21:19.699Z,12.44
2024-03-24T20:23:50.294Z,12.26
2024-03-24T20:26:20.860Z,12.14
2024-03-24T20:28:54.039Z,12.10
2024-03-24T20:31:24.561Z,12.02
2024-03-24T20:33:55.126Z,12.05
2024-03-24T20:36:25.626Z,12.11
2024-03-24T20:38:56.150Z,12.20
2024-03-24T20:41:28.240Z,12.28
2024-03-24T20:43:59.900Z,12.30
2024-03-24T20:46:30.607Z,12.34
2024-03-24T20:49:01.240Z,12.46
2024-03-24T20:51:32.418Z,12.56
2024-03-24T20:54:04.997Z,12.65
2024-03-24T20:56:35.511Z,12.72
2024-03-24T20:59:05.997Z,12.75
2024-03-24T21:01:38.338Z,12.69
2024-03-24T21:04:08.919Z,12.59
2024-03-24T21:06:39.281Z,12.46
2024-03-24T21:09:15.247Z,12.35
2024-03-24T21:11:45.967Z,12.26
2024-03-24T21:14:16.555Z,12.18
2024-03-24T21:16:47.157Z,12.09
2024-03-24T21:19:17.763Z,12.04
2024-03-24T21:21:49.394Z,11.98
2024-03-24T21:24:26.168Z,11.95
2024-03-24T21:26:57.198Z,11.95
2024-03-24T21:29:27.945Z,11.95
2024-03-24T21:31:58.552Z,11.87
2024-03-24T21:34:29.084Z,11.75
2024-03-24T21:36:59.872Z,11.61
2024-03-24T21:39:48.172Z,11.44
2024-03-24T21:42:20.097Z,11.29
2024-03-24T21:44:51.332Z,11.20
2024-03-24T21:47:21.820Z,11.11
2024-03-24T21:49:52.432Z,11.02
2024-03-24T21:52:22.993Z,10.95
2024-03-24T21:54:53.704Z,10.86
2024-03-24T21:57:24.230Z,10.81
2024-03-24T21:59:54.796Z,10.78
2024-03-24T22:02:25.333Z,10.71
2024-03-24T22:04:56.083Z,10.70
2024-03-24T22:07:50.370Z,10.73
2024-03-24T22:10:19.281Z,10.82
2024-03-24T22:12:50.148Z,10.97
2024-03-24T22:15:20.837Z,11.07
2024-03-24T22:17:51.354Z,11.17
2024-03-24T22:20:22.561Z,11.23
2024-03-24T22:22:53.071Z,11.19
2024-03-24T22:25:23.457Z,11.12
2024-03-24T22:27:53.885Z,11.04
2024-03-24T22:30:25.400Z,11.00
2024-03-24T22:32:56.060Z,11.01
2024-03-24T22:35:26.701Z,11.09
2024-03-24T22:37:57.187Z,11.18
2024-03-24T22:40:27.757Z,11.27
2024-03-24T22:42:58.343Z,11.29
2024-03-24T22:45:28.900Z,11.26
2024-03-24T22:47:59.527Z,11.19
2024-03-24T22:50:30.017Z,11.14
2024-03-24T22:53:00.655Z,11.12
2024-03-24T22:55:31.646Z,11.09
2024-03-24T22:58:02.242Z,11.07
2024-03-24T23:00:34.609Z,11.09
2024-03-24T23:03:05.371Z,11.16
2024-03-24T23:05:36.005Z,11.25
2024-03-24T23:08:06.919Z,11.23
2024-03-24T23:10:39.168Z,11.08
2024-03-24T23:13:09.719Z,10.98
2024-03-24T23:15:40.217Z,10.88
2024-03-24T23:18:10.764Z,10.75
2024-03-24T23:20:41.331Z,10.69
2024-03-24T23:23:11.791Z,10.72
2024-03-24T23:25:42.292Z,10.78
2024-03-24T23:28:12.836Z,10.84
2024-03-24T23:30:43.284Z,10.90
2024-03-24T23:33:13.897Z,10.87
2024-03-24T23:35:44.261Z,10.83
2024-03-24T23:38:15.268Z,10.82
2024-03-24T23:40:46.319Z,10.74
2024-03-24T23:43:16.952Z,10.60
2024-03-24T23:45:47.469Z,10.42
2024-03-24T23:48:17.919Z,10.29
2024-03-24T23:50:48.476Z,10.18
2024-03-24T23:53:18.960Z,10.09
2024-03-24T23:55:49.282Z,10.07
2024-03-24T23:58:19.846Z,10.09
